sensor_id;sensor_type;location;lat;lon;timestamp;pressure;altitude;pressure_sealevel;temperature
8533;BMP280;4304;53.876;10.662;2022-11-20T00:00:26;107691.81;;;-139.81
8533;BMP280;4304;53.876;10.662;2022-11-20T00:02:51;107645.31;;;-139.81
8533;BMP280;4304;53.876;10.662;2022-11-20T00:05:16;107675.63;;;-139.81
8533;BMP280;4304;53.876;10.662;2022-11-20T00:07:41;107728.25;;;-139.81
8533;BMP280;4304;53.876;10.662;2022-11-20T00:10:07;107740.38;;;-139.81
8533;BMP280;4304;53.876;10.662;2022-11-20T00:12:32;107663.50;;;-139.81
8533;BMP280;4304;53.876;10.662;2022-11-20T00:14:58;107653.41;;;-139.81
8533;BMP280;4304;53.876;10.662;2022-11-20T00:17:23;107653.41;;;-139.81
8533;BMP280;4304;53.876;10.662;2022-11-20T00:19:48;107651.38;;;-139.81
8533;BMP280;4304;53.876;10.662;2022-11-20T00:22:13;107598.78;;;-139.81
8533;BMP280;4304;53.876;10.662;2022-11-20T00:24:39;107651.38;;;-139.81
8533;BMP280;4304;53.876;10.662;2022-11-20T00:27:04;107720.16;;;-139.81
8533;BMP280;4304;53.876;10.662;2022-11-20T00:29:29;107631.16;;;-139.81
8533;BMP280;4304;53.876;10.662;2022-11-20T00:31:54;107637.22;;;-139.81
8533;BMP280;4304;53.876;10.662;2022-11-20T00:34:20;107649.34;;;-139.81
8533;BMP280;4304;53.876;10.662;2022-11-20T00:36:45;107651.38;;;-139.81
8533;BMP280;4304;53.876;10.662;2022-11-20T00:39:10;107687.78;;;-139.81
8533;BMP280;4304;53.876;10.662;2022-11-20T00:41:35;107726.22;;;-139.81
8533;BMP280;4304;53.876;10.662;2022-11-20T00:44:01;107708.00;;;-139.81
8533;BMP280;4304;53.876;10.662;2022-11-20T00:46:27;107732.28;;;-139.81
8533;BMP280;4304;53.876;10.662;2022-11-20T00:48:52;107756.56;;;-139.81
8533;BMP280;4304;53.876;10.662;2022-11-20T00:51:21;107817.25;;;-139.81
8533;BMP280;4304;53.876;10.662;2022-11-20T00:53:47;107750.50;;;-139.81
8533;BMP280;4304;53.876;10.662;2022-11-20T00:56:14;107797.00;;;-139.81
8533;BMP280;4304;53.876;10.662;2022-11-20T00:58:43;107857.69;;;-139.81
8533;BMP280;4304;53.876;10.662;2022-11-20T01:01:09;107799.03;;;-139.81
8533;BMP280;4304;53.876;10.662;2022-11-20T01:03:39;107821.28;;;-139.81
8533;BMP280;4304;53.876;10.662;2022-11-20T01:06:07;107778.81;;;-139.81
8533;BMP280;4304;53.876;10.662;2022-11-20T01:08:34;107803.09;;;-139.81
8533;BMP280;4304;53.876;10.662;2022-11-20T01:11:01;107746.44;;;-139.81
8533;BMP280;4304;53.876;10.662;2022-11-20T01:13:27;107732.28;;;-139.81
8533;BMP280;4304;53.876;10.662;2022-11-20T01:15:52;107835.44;;;-139.81
8533;BMP280;4304;53.876;10.662;2022-11-20T01:18:17;107728.25;;;-139.81
8533;BMP280;4304;53.876;10.662;2022-11-20T01:20:43;107786.91;;;-139.81
8533;BMP280;4304;53.876;10.662;2022-11-20T01:23:08;107732.28;;;-139.81
8533;BMP280;4304;53.876;10.662;2022-11-20T01:25:34;107736.31;;;-139.81
8533;BMP280;4304;53.876;10.662;2022-11-20T01:28:01;107706.00;;;-139.81
8533;BMP280;4304;53.876;10.662;2022-11-20T01:30:28;107655.41;;;-139.81
8533;BMP280;4304;53.876;10.662;2022-11-20T01:32:55;107693.84;;;-139.81
8533;BMP280;4304;53.876;10.662;2022-11-20T01:35:20;107665.53;;;-139.81
8533;BMP280;4304;53.876;10.662;2022-11-20T01:37:45;107635.19;;;-139.81
8533;BMP280;4304;53.876;10.662;2022-11-20T01:40:11;107610.91;;;-139.81
8533;BMP280;4304;53.876;10.662;2022-11-20T01:42:36;107582.59;;;-139.81
8533;BMP280;4304;53.876;10.662;2022-11-20T01:45:42;107614.97;;;-139.81
8533;BMP280;4304;53.876;10.662;2022-11-20T01:47:47;107608.91;;;-139.81
8533;BMP280;4304;53.876;10.662;2022-11-20T01:50:24;107693.84;;;-139.81
8533;BMP280;4304;53.876;10.662;2022-11-20T01:52:55;107681.72;;;-139.81
8533;BMP280;4304;53.876;10.662;2022-11-20T01:55:26;107683.75;;;-139.81
8533;BMP280;4304;53.876;10.662;2022-11-20T01:57:54;107596.75;;;-139.81
8533;BMP280;4304;53.876;10.662;2022-11-20T02:00:20;107548.22;;;-139.81
8533;BMP280;4304;53.876;10.662;2022-11-20T02:02:49;107623.06;;;-139.81
8533;BMP280;4304;53.876;10.662;2022-11-20T02:05:43;107641.25;;;-139.81
8533;BMP280;4304;53.876;10.662;2022-11-20T02:08:09;107594.72;;;-139.81
8533;BMP280;4304;53.876;10.662;2022-11-20T02:10:53;107677.66;;;-139.81
8533;BMP280;4304;53.876;10.662;2022-11-20T02:13:18;107497.66;;;-139.81
8533;BMP280;4304;53.876;10.662;2022-11-20T02:15:44;107542.16;;;-139.81
8533;BMP280;4304;53.876;10.662;2022-11-20T02:18:11;107511.81;;;-139.81
8533;BMP280;4304;53.876;10.662;2022-11-20T02:20:41;107509.78;;;-139.81
8533;BMP280;4304;53.876;10.662;2022-11-20T02:25:46;107473.38;;;-139.81
8533;BMP280;4304;53.876;10.662;2022-11-20T02:28:12;107461.25;;;-139.81
8533;BMP280;4304;53.876;10.662;2022-11-20T02:30:37;107491.56;;;-139.81
8533;BMP280;4304;53.876;10.662;2022-11-20T02:33:02;107560.34;;;-139.81
8533;BMP280;4304;53.876;10.662;2022-11-20T02:35:51;107550.22;;;-139.81
8533;BMP280;4304;53.876;10.662;2022-11-20T02:38:16;107485.50;;;-139.81
8533;BMP280;4304;53.876;10.662;2022-11-20T02:40:41;107404.59;;;-139.81
8533;BMP280;4304;53.876;10.662;2022-11-20T02:43:07;107509.78;;;-139.81
8533;BMP280;4304;53.876;10.662;2022-11-20T02:45:33;107521.91;;;-139.81
8533;BMP280;4304;53.876;10.662;2022-11-20T02:47:58;107509.78;;;-139.81
8533;BMP280;4304;53.876;10.662;2022-11-20T02:50:23;107534.06;;;-139.81
8533;BMP280;4304;53.876;10.662;2022-11-20T02:52:57;107600.81;;;-139.81
8533;BMP280;4304;53.876;10.662;2022-11-20T02:55:23;107489.56;;;-139.81
8533;BMP280;4304;53.876;10.662;2022-11-20T02:57:48;107530.00;;;-139.81
8533;BMP280;4304;53.876;10.662;2022-11-20T03:00:14;107513.81;;;-139.81
8533;BMP280;4304;53.876;10.662;2022-11-20T03:02:39;107530.00;;;-139.81
8533;BMP280;4304;53.876;10.662;2022-11-20T03:05:04;107558.31;;;-139.81
8533;BMP280;4304;53.876;10.662;2022-11-20T03:07:29;107614.97;;;-139.81
8533;BMP280;4304;53.876;10.662;2022-11-20T03:09:55;107457.19;;;-139.81
8533;BMP280;4304;53.876;10.662;2022-11-20T03:12:22;107499.66;;;-139.81
8533;BMP280;4304;53.876;10.662;2022-11-20T03:14:47;107402.56;;;-139.81
8533;BMP280;4304;53.876;10.662;2022-11-20T03:17:13;107430.91;;;-139.81
8533;BMP280;4304;53.876;10.662;2022-11-20T03:19:38;107424.81;;;-139.81
8533;BMP280;4304;53.876;10.662;2022-11-20T03:22:03;107610.91;;;-139.81
8533;BMP280;4304;53.876;10.662;2022-11-20T03:24:47;107772.75;;;-139.81
8533;BMP280;4304;53.876;10.662;2022-11-20T03:27:12;107558.31;;;-139.81
8533;BMP280;4304;53.876;10.662;2022-11-20T03:29:37;107525.97;;;-139.81
8533;BMP280;4304;53.876;10.662;2022-11-20T03:32:03;107505.72;;;-139.81
8533;BMP280;4304;53.876;10.662;2022-11-20T03:34:28;107499.66;;;-139.81
8533;BMP280;4304;53.876;10.662;2022-11-20T03:36:53;107534.06;;;-139.81
8533;BMP280;4304;53.876;10.662;2022-11-20T03:39:19;107505.72;;;-139.81
8533;BMP280;4304;53.876;10.662;2022-11-20T03:41:44;107465.28;;;-139.81
8533;BMP280;4304;53.876;10.662;2022-11-20T03:44:11;107586.63;;;-139.81
8533;BMP280;4304;53.876;10.662;2022-11-20T03:46:38;107580.56;;;-139.81
8533;BMP280;4304;53.876;10.662;2022-11-20T03:49:04;107530.00;;;-139.81
8533;BMP280;4304;53.876;10.662;2022-11-20T03:51:31;107592.72;;;-139.81
8533;BMP280;4304;53.876;10.662;2022-11-20T03:53:59;107515.84;;;-139.81
8533;BMP280;4304;53.876;10.662;2022-11-20T03:56:28;107534.06;;;-139.81
8533;BMP280;4304;53.876;10.662;2022-11-20T03:58:53;107507.75;;;-139.81
8533;BMP280;4304;53.876;10.662;2022-11-20T04:01:21;107548.22;;;-139.81
8533;BMP280;4304;53.876;10.662;2022-11-20T04:03:48;107507.75;;;-139.81
8533;BMP280;4304;53.876;10.662;2022-11-20T04:06:19;107491.56;;;-139.81
8533;BMP280;4304;53.876;10.662;2022-11-20T04:08:45;107428.88;;;-139.81
8533;BMP280;4304;53.876;10.662;2022-11-20T04:11:17;107485.50;;;-139.81
8533;BMP280;4304;53.876;10.662;2022-11-20T04:13:46;107483.47;;;-139.81
8533;BMP280;4304;53.876;10.662;2022-11-20T04:16:11;107473.38;;;-139.81
8533;BMP280;4304;53.876;10.662;2022-11-20T04:18:37;107489.56;;;-139.81
8533;BMP280;4304;53.876;10.662;2022-11-20T04:21:03;107467.31;;;-139.81
8533;BMP280;4304;53.876;10.662;2022-11-20T04:23:29;107483.47;;;-139.81
8533;BMP280;4304;53.876;10.662;2022-11-20T04:25:54;107477.41;;;-139.81
8533;BMP280;4304;53.876;10.662;2022-11-20T04:28:19;107527.97;;;-139.81
8533;BMP280;4304;53.876;10.662;2022-11-20T04:30:45;107592.72;;;-139.81
8533;BMP280;4304;53.876;10.662;2022-11-20T04:33:10;107481.47;;;-139.81
8533;BMP280;4304;53.876;10.662;2022-11-20T04:35:36;107556.31;;;-139.81
8533;BMP280;4304;53.876;10.662;2022-11-20T04:38:02;107588.66;;;-139.81
8533;BMP280;4304;53.876;10.662;2022-11-20T04:40:29;107519.88;;;-139.81
8533;BMP280;4304;53.876;10.662;2022-11-20T04:42:55;107513.81;;;-139.81
8533;BMP280;4304;53.876;10.662;2022-11-20T04:45:21;107493.59;;;-139.81
8533;BMP280;4304;53.876;10.662;2022-11-20T04:47:46;107544.16;;;-139.81
8533;BMP280;4304;53.876;10.662;2022-11-20T04:50:24;107604.84;;;-139.81
8533;BMP280;4304;53.876;10.662;2022-11-20T04:52:49;107455.16;;;-139.81
8533;BMP280;4304;53.876;10.662;2022-11-20T04:55:14;107477.41;;;-139.81
8533;BMP280;4304;53.876;10.662;2022-11-20T04:57:40;107503.72;;;-139.81
8533;BMP280;4304;53.876;10.662;2022-11-20T05:00:05;107465.28;;;-139.81
8533;BMP280;4304;53.876;10.662;2022-11-20T05:02:31;107479.44;;;-139.81
8533;BMP280;4304;53.876;10.662;2022-11-20T05:04:56;107467.31;;;-139.81
8533;BMP280;4304;53.876;10.662;2022-11-20T05:07:21;107509.78;;;-139.81
8533;BMP280;4304;53.876;10.662;2022-11-20T05:09:46;107412.69;;;-139.81
8533;BMP280;4304;53.876;10.662;2022-11-20T05:12:12;107453.16;;;-139.81
8533;BMP280;4304;53.876;10.662;2022-11-20T05:14:37;107432.91;;;-139.81
8533;BMP280;4304;53.876;10.662;2022-11-20T05:17:02;107428.88;;;-139.81
8533;BMP280;4304;53.876;10.662;2022-11-20T05:19:28;107384.38;;;-139.81
8533;BMP280;4304;53.876;10.662;2022-11-20T05:21:54;107408.66;;;-139.81
8533;BMP280;4304;53.876;10.662;2022-11-20T05:24:20;107408.66;;;-139.81
8533;BMP280;4304;53.876;10.662;2022-11-20T05:26:45;107287.28;;;-139.81
8533;BMP280;4304;53.876;10.662;2022-11-20T05:29:11;107327.75;;;-139.81
8533;BMP280;4304;53.876;10.662;2022-11-20T05:31:42;107325.72;;;-139.81
8533;BMP280;4304;53.876;10.662;2022-11-20T05:34:10;107271.13;;;-139.81
8533;BMP280;4304;53.876;10.662;2022-11-20T05:36:36;107230.66;;;-139.81
8533;BMP280;4304;53.876;10.662;2022-11-20T05:39:17;107485.50;;;-139.81
8533;BMP280;4304;53.876;10.662;2022-11-20T05:41:42;107240.78;;;-139.81
8533;BMP280;4304;53.876;10.662;2022-11-20T05:44:10;107335.84;;;-139.81
8533;BMP280;4304;53.876;10.662;2022-11-20T05:46:36;107279.19;;;-139.81
8533;BMP280;4304;53.876;10.662;2022-11-20T05:49:16;107352.00;;;-139.81
8533;BMP280;4304;53.876;10.662;2022-11-20T05:51:41;107281.22;;;-139.81
8533;BMP280;4304;53.876;10.662;2022-11-20T05:54:07;107331.78;;;-139.81
8533;BMP280;4304;53.876;10.662;2022-11-20T05:56:32;107388.41;;;-139.81
8533;BMP280;4304;53.876;10.662;2022-11-20T05:58:57;107234.72;;;-139.81
8533;BMP280;4304;53.876;10.662;2022-11-20T06:01:25;107287.28;;;-139.81
8533;BMP280;4304;53.876;10.662;2022-11-20T06:03:50;107236.72;;;-139.81
8533;BMP280;4304;53.876;10.662;2022-11-20T06:06:17;107273.13;;;-139.81
8533;BMP280;4304;53.876;10.662;2022-11-20T06:08:43;107287.28;;;-139.81
8533;BMP280;4304;53.876;10.662;2022-11-20T06:11:10;107254.94;;;-139.81
8533;BMP280;4304;53.876;10.662;2022-11-20T06:13:36;107271.13;;;-139.81
8533;BMP280;4304;53.876;10.662;2022-11-20T06:16:02;107275.16;;;-139.81
8533;BMP280;4304;53.876;10.662;2022-11-20T06:18:28;107216.50;;;-139.81
8533;BMP280;4304;53.876;10.662;2022-11-20T06:21:13;107263.03;;;-139.81
8533;BMP280;4304;53.876;10.662;2022-11-20T06:23:39;107256.94;;;-139.81
8533;BMP280;4304;53.876;10.662;2022-11-20T06:26:07;107319.66;;;-139.81
8533;BMP280;4304;53.876;10.662;2022-11-20T06:28:32;107339.88;;;-139.81
8533;BMP280;4304;53.876;10.662;2022-11-20T06:30:58;107345.94;;;-139.81
8533;BMP280;4304;53.876;10.662;2022-11-20T06:33:41;107392.47;;;-139.81
8533;BMP280;4304;53.876;10.662;2022-11-20T06:36:07;107335.84;;;-139.81
8533;BMP280;4304;53.876;10.662;2022-11-20T06:38:33;107447.06;;;-139.81
8533;BMP280;4304;53.876;10.662;2022-11-20T06:40:59;107356.06;;;-139.81
8533;BMP280;4304;53.876;10.662;2022-11-20T06:43:31;107418.75;;;-139.81
8533;BMP280;4304;53.876;10.662;2022-11-20T06:45:58;107396.50;;;-139.81
8533;BMP280;4304;53.876;10.662;2022-11-20T06:48:25;107445.06;;;-139.81
8533;BMP280;4304;53.876;10.662;2022-11-20T06:51:03;107475.41;;;-139.81
8533;BMP280;4304;53.876;10.662;2022-11-20T06:53:29;107469.31;;;-139.81
8533;BMP280;4304;53.876;10.662;2022-11-20T06:55:55;107428.88;;;-139.81
8533;BMP280;4304;53.876;10.662;2022-11-20T06:58:27;107418.75;;;-139.81
8533;BMP280;4304;53.876;10.662;2022-11-20T07:00:53;107396.50;;;-139.81
8533;BMP280;4304;53.876;10.662;2022-11-20T07:03:18;107408.66;;;-139.81
8533;BMP280;4304;53.876;10.662;2022-11-20T07:05:44;107406.63;;;-139.81
8533;BMP280;4304;53.876;10.662;2022-11-20T07:08:14;107443.03;;;-139.81
8533;BMP280;4304;53.876;10.662;2022-11-20T07:10:40;107443.03;;;-139.81
8533;BMP280;4304;53.876;10.662;2022-11-20T07:13:06;107538.09;;;-139.81
8533;BMP280;4304;53.876;10.662;2022-11-20T07:15:52;107445.06;;;-139.81
8533;BMP280;4304;53.876;10.662;2022-11-20T07:18:20;107453.16;;;-139.81
8533;BMP280;4304;53.876;10.662;2022-11-20T07:20:46;107384.38;;;-139.81
8533;BMP280;4304;53.876;10.662;2022-11-20T07:23:11;107319.66;;;-139.81
8533;BMP280;4304;53.876;10.662;2022-11-20T07:25:37;107321.69;;;-139.81
8533;BMP280;4304;53.876;10.662;2022-11-20T07:28:02;107368.19;;;-139.81
8533;BMP280;4304;53.876;10.662;2022-11-20T07:30:28;107370.22;;;-139.81
8533;BMP280;4304;53.876;10.662;2022-11-20T07:32:54;107402.56;;;-139.81
8533;BMP280;4304;53.876;10.662;2022-11-20T07:35:23;107408.66;;;-139.81
8533;BMP280;4304;53.876;10.662;2022-11-20T07:37:48;107376.28;;;-139.81
8533;BMP280;4304;53.876;10.662;2022-11-20T07:40:14;107420.78;;;-139.81
8533;BMP280;4304;53.876;10.662;2022-11-20T07:42:54;107515.84;;;-139.81
8533;BMP280;4304;53.876;10.662;2022-11-20T07:45:22;107542.16;;;-139.81
8533;BMP280;4304;53.876;10.662;2022-11-20T07:47:47;107576.53;;;-139.81
8533;BMP280;4304;53.876;10.662;2022-11-20T07:50:13;107572.47;;;-139.81
8533;BMP280;4304;53.876;10.662;2022-11-20T07:52:39;107536.06;;;-139.81
8533;BMP280;4304;53.876;10.662;2022-11-20T07:55:04;107513.81;;;-139.81
8533;BMP280;4304;53.876;10.662;2022-11-20T07:57:37;107582.59;;;-139.81
8533;BMP280;4304;53.876;10.662;2022-11-20T08:00:04;107572.47;;;-139.81
8533;BMP280;4304;53.876;10.662;2022-11-20T08:02:30;107540.13;;;-139.81
8533;BMP280;4304;53.876;10.662;2022-11-20T08:05:07;107667.56;;;-139.81
8533;BMP280;4304;53.876;10.662;2022-11-20T08:07:41;107574.50;;;-139.81
8533;BMP280;4304;53.876;10.662;2022-11-20T08:10:08;107554.28;;;-139.81
8533;BMP280;4304;53.876;10.662;2022-11-20T08:12:33;107550.22;;;-139.81
8533;BMP280;4304;53.876;10.662;2022-11-20T08:14:58;107582.59;;;-139.81
8533;BMP280;4304;53.876;10.662;2022-11-20T08:17:28;107635.19;;;-139.81
8533;BMP280;4304;53.876;10.662;2022-11-20T08:19:53;107570.47;;;-139.81
8533;BMP280;4304;53.876;10.662;2022-11-20T08:22:18;107635.19;;;-139.81
8533;BMP280;4304;53.876;10.662;2022-11-20T08:24:45;107667.56;;;-139.81
8533;BMP280;4304;53.876;10.662;2022-11-20T08:27:21;107610.91;;;-139.81
8533;BMP280;4304;53.876;10.662;2022-11-20T08:29:46;107598.78;;;-139.81
8533;BMP280;4304;53.876;10.662;2022-11-20T08:32:12;107645.31;;;-139.81
8533;BMP280;4304;53.876;10.662;2022-11-20T08:34:38;107623.06;;;-139.81
8533;BMP280;4304;53.876;10.662;2022-11-20T08:37:03;107521.91;;;-139.81
8533;BMP280;4304;53.876;10.662;2022-11-20T08:39:29;107534.06;;;-139.81
8533;BMP280;4304;53.876;10.662;2022-11-20T08:41:54;107562.38;;;-139.81
8533;BMP280;4304;53.876;10.662;2022-11-20T08:44:20;107586.63;;;-139.81
8533;BMP280;4304;53.876;10.662;2022-11-20T08:47:05;107675.63;;;-139.81
8533;BMP280;4304;53.876;10.662;2022-11-20T08:49:30;107566.41;;;-139.81
8533;BMP280;4304;53.876;10.662;2022-11-20T08:51:56;107580.56;;;-139.81
8533;BMP280;4304;53.876;10.662;2022-11-20T08:54:21;107651.38;;;-139.81
8533;BMP280;4304;53.876;10.662;2022-11-20T08:56:47;107610.91;;;-139.81
8533;BMP280;4304;53.876;10.662;2022-11-20T08:59:13;107627.09;;;-139.81
8533;BMP280;4304;53.876;10.662;2022-11-20T09:01:38;107558.31;;;-139.81
8533;BMP280;4304;53.876;10.662;2022-11-20T09:04:03;107527.97;;;-139.81
8533;BMP280;4304;53.876;10.662;2022-11-20T09:09:21;107653.41;;;-139.81
8533;BMP280;4304;53.876;10.662;2022-11-20T09:11:47;107637.22;;;-139.81
8533;BMP280;4304;53.876;10.662;2022-11-20T09:14:29;107699.91;;;-139.81
8533;BMP280;4304;53.876;10.662;2022-11-20T09:16:55;107483.47;;;-139.81
8533;BMP280;4304;53.876;10.662;2022-11-20T09:19:21;107586.63;;;-139.81
8533;BMP280;4304;53.876;10.662;2022-11-20T09:21:55;107653.41;;;-139.81
8533;BMP280;4304;53.876;10.662;2022-11-20T09:24:21;107703.97;;;-139.81
8533;BMP280;4304;53.876;10.662;2022-11-20T09:26:48;107736.31;;;-139.81
8533;BMP280;4304;53.876;10.662;2022-11-20T09:29:13;107829.38;;;-139.81
8533;BMP280;4304;53.876;10.662;2022-11-20T09:31:39;107841.53;;;-139.81
8533;BMP280;4304;53.876;10.662;2022-11-20T09:34:04;107865.78;;;-139.81
8533;BMP280;4304;53.876;10.662;2022-11-20T09:36:40;108055.94;;;-139.81
8533;BMP280;4304;53.876;10.662;2022-11-20T09:39:06;108108.56;;;-139.81
8533;BMP280;4304;53.876;10.662;2022-11-20T09:55:27;108254.22;;;-139.81
8533;BMP280;4304;53.876;10.662;2022-11-20T09:57:54;108193.53;;;-139.81
8533;BMP280;4304;53.876;10.662;2022-11-20T10:00:20;108116.66;;;-139.81
8533;BMP280;4304;53.876;10.662;2022-11-20T10:03:11;108183.41;;;-139.81
8533;BMP280;4304;53.876;10.662;2022-11-20T10:05:44;108242.09;;;-139.81
8533;BMP280;4304;53.876;10.662;2022-11-20T10:08:28;108371.56;;;-139.81
8533;BMP280;4304;53.876;10.662;2022-11-20T10:20:14;108096.41;;;-139.81
8533;BMP280;4304;53.876;10.662;2022-11-20T10:25:40;108173.28;;;-139.81
8533;BMP280;4304;53.876;10.662;2022-11-20T10:28:37;108090.34;;;-139.81
8533;BMP280;4304;53.876;10.662;2022-11-20T10:31:12;108104.50;;;-139.81
8533;BMP280;4304;53.876;10.662;2022-11-20T10:33:41;108049.88;;;-139.81
8533;BMP280;4304;53.876;10.662;2022-11-20T10:36:16;107918.38;;;-139.81
8533;BMP280;4304;53.876;10.662;2022-11-20T10:38:47;107999.31;;;-139.81
8533;BMP280;4304;53.876;10.662;2022-11-20T10:41:23;108112.59;;;-139.81
8533;BMP280;4304;53.876;10.662;2022-11-20T10:43:52;108219.81;;;-139.81
8533;BMP280;4304;53.876;10.662;2022-11-20T10:46:20;108351.34;;;-139.81
8533;BMP280;4304;53.876;10.662;2022-11-20T10:48:50;108290.63;;;-139.81
8533;BMP280;4304;53.876;10.662;2022-11-20T10:51:57;108490.94;;;-139.81
8533;BMP280;4304;53.876;10.662;2022-11-20T11:00:14;108464.66;;;-139.81
8533;BMP280;4304;53.876;10.662;2022-11-20T11:02:50;108375.63;;;-139.81
8533;BMP280;4304;53.876;10.662;2022-11-20T11:05:30;108347.28;;;-139.81
8533;BMP280;4304;53.876;10.662;2022-11-20T11:07:58;108246.13;;;-139.81
8533;BMP280;4304;53.876;10.662;2022-11-20T11:13:23;108472.75;;;-139.81
8533;BMP280;4304;53.876;10.662;2022-11-20T11:15:50;108420.13;;;-139.81
8533;BMP280;4304;53.876;10.662;2022-11-20T11:18:32;108737.81;;;-139.81
8533;BMP280;4304;53.876;10.662;2022-11-20T11:20:59;108606.28;;;-139.81
8533;BMP280;4304;53.876;10.662;2022-11-20T11:23:36;108549.63;;;-139.81
8533;BMP280;4304;53.876;10.662;2022-11-20T11:26:05;108484.88;;;-139.81
8533;BMP280;4304;53.876;10.662;2022-11-20T11:28:32;108523.31;;;-139.81
8533;BMP280;4304;53.876;10.662;2022-11-20T11:30:57;108695.31;;;-139.81
8533;BMP280;4304;53.876;10.662;2022-11-20T11:33:29;108853.16;;;-139.81
8533;BMP280;4304;53.876;10.662;2022-11-20T11:35:56;108784.34;;;-139.81
8533;BMP280;4304;53.876;10.662;2022-11-20T11:38:32;108881.47;;;-139.81
8533;BMP280;4304;53.876;10.662;2022-11-20T11:40:59;108970.53;;;-139.81
8533;BMP280;4304;53.876;10.662;2022-11-20T11:43:27;108760.06;;;-139.81
8533;BMP280;4304;53.876;10.662;2022-11-20T11:45:54;108691.25;;;-139.81
8533;BMP280;4304;53.876;10.662;2022-11-20T11:48:20;108662.94;;;-139.81
8533;BMP280;4304;53.876;10.662;2022-11-20T11:50:50;108410.00;;;-139.81
8533;BMP280;4304;53.876;10.662;2022-11-20T11:53:21;108450.47;;;-139.81
8533;BMP280;4304;53.876;10.662;2022-11-20T11:58:41;108626.50;;;-139.81
8533;BMP280;4304;53.876;10.662;2022-11-20T12:01:36;108586.03;;;-139.81
8533;BMP280;4304;53.876;10.662;2022-11-20T12:04:14;108590.09;;;-139.81
8533;BMP280;4304;53.876;10.662;2022-11-20T12:10:15;108648.78;;;-139.81
8533;BMP280;4304;53.876;10.662;2022-11-20T12:12:44;108561.75;;;-139.81
8533;BMP280;4304;53.876;10.662;2022-11-20T12:15:20;108646.75;;;-139.81
8533;BMP280;4304;53.876;10.662;2022-11-20T12:17:47;108559.75;;;-139.81
8533;BMP280;4304;53.876;10.662;2022-11-20T12:20:40;108533.44;;;-139.81
8533;BMP280;4304;53.876;10.662;2022-11-20T12:23:28;108377.63;;;-139.81
8533;BMP280;4304;53.876;10.662;2022-11-20T12:26:07;108387.75;;;-139.81
8533;BMP280;4304;53.876;10.662;2022-11-20T12:39:29;108715.53;;;-139.81
8533;BMP280;4304;53.876;10.662;2022-11-20T12:45:28;108579.97;;;-139.81
8533;BMP280;4304;53.876;10.662;2022-11-20T12:48:24;108594.13;;;-139.81
8533;BMP280;4304;53.876;10.662;2022-11-20T13:01:45;108177.34;;;-139.81
8533;BMP280;4304;53.876;10.662;2022-11-20T13:06:41;108043.81;;;-139.81
8533;BMP280;4304;53.876;10.662;2022-11-20T13:09:09;108100.47;;;-139.81
8533;BMP280;4304;53.876;10.662;2022-11-20T13:19:52;108167.22;;;-139.81
8533;BMP280;4304;53.876;10.662;2022-11-20T13:22:49;108250.19;;;-139.81
8533;BMP280;4304;53.876;10.662;2022-11-20T13:27:48;108169.25;;;-139.81
8533;BMP280;4304;53.876;10.662;2022-11-20T13:30:17;108236.00;;;-139.81
8533;BMP280;4304;53.876;10.662;2022-11-20T13:32:54;108314.91;;;-139.81
8533;BMP280;4304;53.876;10.662;2022-11-20T13:35:54;108444.41;;;-139.81
8533;BMP280;4304;53.876;10.662;2022-11-20T13:38:19;108337.19;;;-139.81
8533;BMP280;4304;53.876;10.662;2022-11-20T13:41:01;108357.41;;;-139.81
8533;BMP280;4304;53.876;10.662;2022-11-20T13:46:00;108175.31;;;-139.81
8533;BMP280;4304;53.876;10.662;2022-11-20T13:48:29;108213.75;;;-139.81
8533;BMP280;4304;53.876;10.662;2022-11-20T13:53:44;108055.94;;;-139.81
8533;BMP280;4304;53.876;10.662;2022-11-20T14:01:45;108041.78;;;-139.81
8533;BMP280;4304;53.876;10.662;2022-11-20T14:04:15;107985.16;;;-139.81
8533;BMP280;4304;53.876;10.662;2022-11-20T14:06:44;107926.47;;;-139.81
8533;BMP280;4304;53.876;10.662;2022-11-20T14:09:23;107898.16;;;-139.81
8533;BMP280;4304;53.876;10.662;2022-11-20T14:11:49;107849.63;;;-139.81
8533;BMP280;4304;53.876;10.662;2022-11-20T14:14:23;107890.06;;;-139.81
8533;BMP280;4304;53.876;10.662;2022-11-20T14:16:49;107792.97;;;-139.81
8533;BMP280;4304;53.876;10.662;2022-11-20T14:21:53;107734.31;;;-139.81
8533;BMP280;4304;53.876;10.662;2022-11-20T14:24:22;107845.56;;;-139.81
8533;BMP280;4304;53.876;10.662;2022-11-20T14:26:49;107645.31;;;-139.81
8533;BMP280;4304;53.876;10.662;2022-11-20T14:29:20;107695.88;;;-139.81
8533;BMP280;4304;53.876;10.662;2022-11-20T14:31:48;107637.22;;;-139.81
8533;BMP280;4304;53.876;10.662;2022-11-20T14:34:19;107685.75;;;-139.81
8533;BMP280;4304;53.876;10.662;2022-11-20T14:36:45;107635.19;;;-139.81
8533;BMP280;4304;53.876;10.662;2022-11-20T14:39:12;107635.19;;;-139.81
8533;BMP280;4304;53.876;10.662;2022-11-20T14:41:37;107651.38;;;-139.81
8533;BMP280;4304;53.876;10.662;2022-11-20T14:44:04;107641.25;;;-139.81
8533;BMP280;4304;53.876;10.662;2022-11-20T14:46:30;107683.75;;;-139.81
8533;BMP280;4304;53.876;10.662;2022-11-20T14:49:00;107706.00;;;-139.81
8533;BMP280;4304;53.876;10.662;2022-11-20T14:56:37;107548.22;;;-139.81
8533;BMP280;4304;53.876;10.662;2022-11-20T14:59:29;107724.19;;;-139.81
8533;BMP280;4304;53.876;10.662;2022-11-20T15:02:11;107657.44;;;-139.81
8533;BMP280;4304;53.876;10.662;2022-11-20T15:04:50;107542.16;;;-139.81
8533;BMP280;4304;53.876;10.662;2022-11-20T15:07:31;107588.66;;;-139.81
8533;BMP280;4304;53.876;10.662;2022-11-20T15:10:26;107538.09;;;-139.81
8533;BMP280;4304;53.876;10.662;2022-11-20T15:12:59;107453.16;;;-139.81
8533;BMP280;4304;53.876;10.662;2022-11-20T15:15:49;107463.25;;;-139.81
8533;BMP280;4304;53.876;10.662;2022-11-20T15:18:30;107432.91;;;-139.81
8533;BMP280;4304;53.876;10.662;2022-11-20T15:20:57;107325.72;;;-139.81
8533;BMP280;4304;53.876;10.662;2022-11-20T15:23:23;107261.00;;;-139.81
8533;BMP280;4304;53.876;10.662;2022-11-20T15:25:49;107236.72;;;-139.81
8533;BMP280;4304;53.876;10.662;2022-11-20T15:30:46;107176.06;;;-139.81
8533;BMP280;4304;53.876;10.662;2022-11-20T15:33:12;107214.47;;;-139.81
8533;BMP280;4304;53.876;10.662;2022-11-20T15:35:37;107206.38;;;-139.81
8533;BMP280;4304;53.876;10.662;2022-11-20T15:38:03;107172.00;;;-139.81
8533;BMP280;4304;53.876;10.662;2022-11-20T15:40:28;107157.84;;;-139.81